Colorado Springs, CO (80916)

9:29 PM MDT on May 27, 2015 (GMT -0600)
Canterbury Park | | Change Station
CLOSE
Current Station
Personal Weather Station
Location: Colorado Springs, CO
Elevation: 6001 ft
Nearby Weather Stations

Elev 6001 ft 38.79 °N, 104.73 °W | Updated 19 minutes ago

Mostly Cloudy
Mostly Cloudy
60.2 °F
Feels Like 60.2 °F
N
0.0
Wind Variable Wind from WSW
Gusts 1.0 mph

Today
High -- | Low -- °F
--% Chance of Precip.
Yesterday
High -- | Low -- °F
Precip. -- in
5:38 AM 8:14 PM
Waxing Gibbous, 72% visible
Pressure 29.91 in
Visibility 10.0 miles
Clouds Few 12000 ft
Scattered Clouds 16000 ft
Mostly Cloudy 24000 ft
Dew Point 44 °F
Humidity 54%
Rainfall 0.00 in
Snow Depth Not available.
UV 0 out of 12
Pollen 7.50 out of 12
Air Quality Not available.
Flu Activity Sporadic
METAR KCOS 280254Z 08008KT 10SM FEW120 SCT160 BKN240 16/06 A3008 RMK AO2 SLP127 T01610056 53010

More Conditions Fewer Conditions

Pressure 29.91 in
Visibility 10.0 miles
Clouds Few 12000 ft
Scattered Clouds 16000 ft
Mostly Cloudy 24000 ft
Dew Point 44 °F
Humidity 54%
Rainfall 0.00 in
Snow Depth Not available.
UV 0 out of 12
Pollen 7.50 out of 12
Air Quality Not available.
Flu Activity Sporadic
METAR KCOS 280254Z 08008KT 10SM FEW120 SCT160 BKN240 16/06 A3008 RMK AO2 SLP127 T01610056 53010

More Conditions Fewer Conditions

10-Day Weather Forecast

Almanac

Astronomy

May. 27, 2015 Rise Set
Actual Time
Civil Twilight
Nautical Twilight
Astronomical Twilight
Moon
Length of Visible Light
Length of Day
Tomorrow will be .
, % of the Moon is Illuminated

Today's Extremes

State Highs State Lows

Community

WunderPhotos

Upload Photos

1,824,886 photos uploaded!

WunderBlogs® & News

Nearby

Air Quality

  Air Quality AQ Index Pollutant
Not available.

Snow Depth

Station Depth Elevation

Earthquake Activity

City Distance Mag. Time & Date
Minimum magnitude displayed is 2.5.

Coastal Water Temperatures

Place Temperature

Stations

Nearby Weather Stations

Station Location Temp. Windchill Dew Point Humidity Wind Precip. Elev Updated Type